Time;durP1;ratioP1;P1;durP2;ratioP2;P2;SDS_P1;SDS_P2;PMS_P1;PMS_P2;Temp;Humidity;BMP_temperature;BMP_pressure;BME280_temperature;BME280_humidity;BME280_pressure;Samples;Min_cycle;Max_cycle;Signal;HPM_P1;HPM_P2
2023/08/29 00:01:53;;;;;;;5.30;4.15;;;;;;;15.01;76.04;101172.44;5008078;28;20034;-66
2023/08/29 00:04:18;;;;;;;5.25;3.75;;;;;;;14.97;75.51;101164.72;5014975;28;20033;-66
2023/08/29 00:06:44;;;;;;;5.65;4.60;;;;;;;14.99;74.99;101169.00;5010370;28;20045;-67
2023/08/29 00:09:09;;;;;;;4.82;4.03;;;;;;;15.00;75.37;101172.50;5012512;28;20072;-66
2023/08/29 00:11:35;;;;;;;5.40;3.55;;;;;;;15.00;74.76;101165.38;5011284;28;20097;-67
2023/08/29 00:14:00;;;;;;;4.75;3.90;;;;;;;15.01;74.79;101166.25;5006103;28;20022;-67
2023/08/29 00:16:26;;;;;;;5.93;3.63;;;;;;;15.13;74.39;101159.41;5012138;28;20261;-66
2023/08/29 00:18:51;;;;;;;4.40;4.00;;;;;;;15.17;74.65;101161.81;5008762;28;20068;-66
2023/08/29 00:21:17;;;;;;;3.95;3.60;;;;;;;15.05;75.37;101157.16;5012797;28;20416;-66
2023/08/29 00:23:42;;;;;;;4.13;3.72;;;;;;;14.98;74.23;101159.28;5014051;28;20079;-66
2023/08/29 00:26:07;;;;;;;4.07;3.45;;;;;;;14.95;74.57;101140.81;5008971;28;20508;-66
2023/08/29 00:28:33;;;;;;;3.53;3.20;;;;;;;15.08;73.61;101145.50;5007671;28;20134;-66
2023/08/29 00:30:58;;;;;;;4.65;3.72;;;;;;;15.10;74.26;101140.91;5010971;28;20037;-66
2023/08/29 00:33:23;;;;;;;3.95;3.55;;;;;;;14.94;75.14;101143.56;5011685;28;20502;-66
2023/08/29 00:35:48;;;;;;;3.80;3.50;;;;;;;14.83;75.47;101141.47;5011619;28;20056;-66
2023/08/29 00:38:14;;;;;;;5.00;4.00;;;;;;;14.82;75.25;101144.19;5010714;28;20091;-67
2023/08/29 00:40:39;;;;;;;4.22;3.80;;;;;;;14.80;75.84;101144.28;5019885;28;20079;-66
2023/08/29 00:43:05;;;;;;;4.15;3.72;;;;;;;14.82;75.70;101149.53;5007361;28;20036;-66
2023/08/29 00:45:32;;;;;;;4.47;4.07;;;;;;;14.79;75.70;101140.78;5006807;28;20030;-66
2023/08/29 00:47:58;;;;;;;5.63;3.83;;;;;;;14.75;75.00;101133.91;5013692;28;20029;-66
2023/08/29 00:50:25;;;;;;;4.97;3.45;;;;;;;14.79;75.07;101135.44;5013074;28;20105;-66
2023/08/29 00:52:56;;;;;;;5.70;3.63;;;;;;;14.76;76.00;101130.28;5011012;28;20044;-66
2023/08/29 00:55:23;;;;;;;6.03;4.25;;;;;;;14.73;75.72;101134.91;5014345;28;20298;-66
2023/08/29 00:57:48;;;;;;;4.70;4.30;;;;;;;14.73;75.68;101134.91;5008957;28;20037;-66
2023/08/29 01:00:14;;;;;;;4.40;3.63;;;;;;;14.74;75.48;101133.97;5012092;28;20104;-66
2023/08/29 01:02:39;;;;;;;4.75;4.22;;;;;;;14.76;75.23;101140.06;5013777;28;20034;-67
2023/08/29 01:05:05;;;;;;;7.60;4.65;;;;;;;14.72;75.76;101147.34;5010574;28;20504;-66
2023/08/29 01:07:30;;;;;;;5.00;4.50;;;;;;;14.73;76.28;101135.75;4999376;28;20129;-66
2023/08/29 01:09:56;;;;;;;5.53;4.40;;;;;;;14.75;76.15;101131.22;5010747;28;20406;-65
2023/08/29 01:12:34;;;;;;;5.80;4.32;;;;;;;14.72;76.34;101128.72;5015096;28;20053;-65
2023/08/29 01:15:10;;;;;;;5.47;4.22;;;;;;;14.76;76.37;101132.09;5008922;28;20437;-65
2023/08/29 01:17:43;;;;;;;5.45;4.03;;;;;;;14.71;75.25;101134.13;5009182;28;20028;-65
2023/08/29 01:20:12;;;;;;;4.63;3.83;;;;;;;14.57;75.57;101140.19;5015764;28;20049;-65
2023/08/29 01:23:11;;;;;;;7.43;4.15;;;;;;;14.52;76.42;101132.44;5011524;28;20053;-65
2023/08/29 01:25:46;;;;;;;5.18;4.40;;;;;;;14.49;76.41;101137.91;5013290;28;20048;-66
2023/08/29 01:28:12;;;;;;;5.90;4.05;;;;;;;14.44;76.33;101136.38;5008674;28;20494;-65
2023/08/29 01:30:38;;;;;;;5.85;4.13;;;;;;;14.43;76.53;101147.97;5008089;28;21321;-65
2023/08/29 01:33:04;;;;;;;6.63;3.95;;;;;;;14.34;76.49;101146.66;5019370;28;20043;-65
2023/08/29 01:35:29;;;;;;;3.85;3.55;;;;;;;14.29;76.92;101146.03;5009158;28;20026;-65
2023/08/29 01:37:54;;;;;;;4.90;3.75;;;;;;;14.33;76.81;101142.28;5006985;28;20019;-65
2023/08/29 01:40:20;;;;;;;5.85;4.30;;;;;;;14.37;76.19;101143.84;5012863;28;20036;-65
2023/08/29 01:42:45;;;;;;;7.57;4.30;;;;;;;14.36;76.65;101146.56;5012431;28;20437;-65
2023/08/29 01:45:10;;;;;;;5.13;4.45;;;;;;;14.30;76.29;101142.41;5018959;28;20024;-65
2023/08/29 01:47:35;;;;;;;4.97;3.88;;;;;;;14.18;76.36;101145.72;5015153;28;20022;-65
2023/08/29 01:50:04;;;;;;;7.03;3.88;;;;;;;14.17;76.26;101143.97;5006277;28;20029;-65
2023/08/29 01:52:30;;;;;;;3.55;3.25;;;;;;;13.98;76.41;101150.19;5005535;28;20041;-65
2023/08/29 01:54:57;;;;;;;3.63;3.10;;;;;;;14.03;76.29;101150.88;5009257;28;20139;-65
2023/08/29 01:57:26;;;;;;;3.35;3.05;;;;;;;13.99;77.25;101156.41;5015075;28;20026;-66
2023/08/29 01:59:52;;;;;;;4.13;3.30;;;;;;;14.02;77.16;101154.44;5006200;28;20022;-66
2023/08/29 02:02:18;;;;;;;3.50;3.03;;;;;;;14.06;76.68;101163.13;5013538;28;20028;-65
2023/08/29 02:04:43;;;;;;;6.22;3.63;;;;;;;13.99;77.53;101156.41;5006926;28;20092;-65
2023/08/29 02:07:08;;;;;;;6.20;3.28;;;;;;;13.93;76.95;101154.88;5006666;28;20107;-65
2023/08/29 02:09:34;;;;;;;4.35;3.08;;;;;;;13.95;76.26;101154.84;5004695;28;20030;-65
2023/08/29 02:11:59;;;;;;;3.03;2.72;;;;;;;13.95;76.20;101165.47;5007115;28;20156;-66
2023/08/29 02:14:24;;;;;;;3.97;2.80;;;;;;;13.93;76.44;101162.84;5007161;28;20033;-65
2023/08/29 02:16:49;;;;;;;3.15;2.83;;;;;;;13.95;76.50;101163.66;5006290;28;20137;-65
2023/08/29 02:19:15;;;;;;;3.03;2.65;;;;;;;13.97;76.92;101168.91;5007145;28;20021;-66
2023/08/29 02:21:40;;;;;;;3.10;2.80;;;;;;;13.97;76.68;101171.56;5007147;28;20481;-65
2023/08/29 02:24:05;;;;;;;4.25;2.92;;;;;;;13.93;77.37;101168.19;5013440;28;20112;-67
2023/08/29 02:26:31;;;;;;;2.70;2.50;;;;;;;13.84;76.22;101175.72;5018739;28;20042;-66
2023/08/29 02:28:56;;;;;;;3.90;2.60;;;;;;;13.71;76.47;101179.00;5010705;28;20026;-66
2023/08/29 02:31:22;;;;;;;3.35;2.70;;;;;;;13.60;76.25;101175.13;5013517;28;20030;-66
2023/08/29 02:33:47;;;;;;;2.40;2.17;;;;;;;13.44;76.38;101180.31;5008438;28;20025;-66
2023/08/29 02:36:13;;;;;;;3.67;3.10;;;;;;;13.35;78.00;101191.34;5004303;28;20474;-67
2023/08/29 02:38:38;;;;;;;3.15;2.85;;;;;;;13.38;78.39;101193.84;5010635;28;20519;-66
2023/08/29 02:41:05;;;;;;;3.75;3.30;;;;;;;13.41;78.32;101199.03;5011541;28;20096;-67
2023/08/29 02:43:30;;;;;;;5.28;3.40;;;;;;;13.44;77.56;101197.09;5005122;28;20552;-66
2023/08/29 02:45:55;;;;;;;5.35;3.40;;;;;;;13.35;77.63;101200.19;5009512;28;20025;-67
2023/08/29 02:48:21;;;;;;;4.97;3.70;;;;;;;13.23;78.83;101198.94;5005159;28;20366;-67
2023/08/29 02:50:49;;;;;;;4.10;3.47;;;;;;;13.17;79.16;101203.63;5010447;28;20042;-67
2023/08/29 02:53:18;;;;;;;3.95;3.55;;;;;;;13.13;80.09;101199.38;5005898;28;20026;-67
2023/08/29 02:55:44;;;;;;;5.35;3.35;;;;;;;13.22;79.95;101204.31;5011421;28;20026;-67
2023/08/29 02:58:09;;;;;;;5.30;3.58;;;;;;;13.15;80.08;101197.50;5008298;28;20039;-67
2023/08/29 03:00:35;;;;;;;6.28;3.03;;;;;;;13.29;79.38;101195.16;5007224;28;20064;-67
2023/08/29 03:03:00;;;;;;;5.28;4.05;;;;;;;13.52;79.70;101205.59;5006532;28;20384;-66
2023/08/29 03:05:25;;;;;;;5.82;3.67;;;;;;;13.55;78.88;101206.34;5003823;28;20044;-67
2023/08/29 03:07:51;;;;;;;3.13;2.80;;;;;;;13.44;79.24;101197.09;5008975;28;20340;-66
2023/08/29 03:10:17;;;;;;;15.50;4.35;;;;;;;13.52;79.14;101205.59;5011315;28;20034;-67
2023/08/29 03:12:42;;;;;;;9.07;3.88;;;;;;;13.50;78.87;101196.81;5010965;28;20026;-67
2023/08/29 03:15:08;;;;;;;7.53;3.70;;;;;;;13.48;78.82;101197.81;5005837;28;20033;-67
2023/08/29 03:17:34;;;;;;;7.40;3.20;;;;;;;13.50;78.48;101198.59;5005036;28;20173;-67
2023/08/29 03:20:00;;;;;;;4.03;3.00;;;;;;;13.47;78.06;101193.41;5015499;28;20396;-66
2023/08/29 03:22:25;;;;;;;2.70;2.50;;;;;;;13.39;78.90;101195.59;5002402;28;20026;-67
2023/08/29 03:24:51;;;;;;;3.40;3.10;;;;;;;13.42;79.05;101198.94;5014703;28;20044;-67
2023/08/29 03:27:16;;;;;;;3.50;3.20;;;;;;;13.50;78.57;101198.59;5007876;28;20349;-67
2023/08/29 03:29:41;;;;;;;3.70;3.40;;;;;;;13.48;78.83;101189.84;5005898;28;20029;-67
2023/08/29 03:32:07;;;;;;;4.10;3.42;;;;;;;13.46;78.94;101189.03;5006806;28;20026;-67
2023/08/29 03:34:32;;;;;;;3.95;3.50;;;;;;;13.48;78.86;101190.72;5007536;28;20105;-65
2023/08/29 03:36:57;;;;;;;2.50;2.30;;;;;;;13.41;77.92;101183.09;4989017;28;20393;-66
2023/08/29 03:39:22;;;;;;;19.55;4.30;;;;;;;13.23;78.89;101183.00;5012663;28;20034;-65
2023/08/29 03:41:48;;;;;;;7.30;3.45;;;;;;;13.21;78.98;101178.69;5009382;28;20404;-65
2023/08/29 03:44:13;;;;;;;4.82;3.10;;;;;;;13.20;78.58;101166.34;5006402;28;20042;-65
2023/08/29 03:46:38;;;;;;;15.80;4.50;;;;;;;13.11;79.14;101161.44;5008970;28;20068;-65
2023/08/29 03:49:04;;;;;;;5.93;4.40;;;;;;;13.08;79.33;101153.59;5006841;28;20022;-66
2023/08/29 03:51:29;;;;;;;6.82;4.43;;;;;;;13.12;79.64;101156.06;5004655;28;20030;-65
2023/08/29 03:53:54;;;;;;;4.38;3.97;;;;;;;13.19;78.92;101149.50;5006552;28;20033;-67
2023/08/29 03:56:20;;;;;;;5.72;4.35;;;;;;;13.28;79.15;101154.44;5005274;28;20065;-67
2023/08/29 03:58:46;;;;;;;4.10;3.70;;;;;;;13.31;79.34;101149.94;5004257;28;20029;-67
2023/08/29 04:01:11;;;;;;;5.15;4.32;;;;;;;13.33;78.96;101150.72;5006934;28;20057;-67
2023/08/29 04:03:37;;;;;;;4.53;4.10;;;;;;;13.34;78.40;101141.84;5005216;28;20122;-67
2023/08/29 04:06:03;;;;;;;4.47;4.05;;;;;;;13.37;78.37;101144.31;5008205;28;20547;-67
2023/08/29 04:08:28;;;;;;;5.00;3.90;;;;;;;13.41;77.99;101151.22;5009079;28;20033;-67
2023/08/29 04:10:54;;;;;;;6.72;3.80;;;;;;;13.42;77.89;101143.16;5012491;28;20072;-67
2023/08/29 04:13:19;;;;;;;4.00;3.60;;;;;;;13.42;77.41;101137.00;5008167;28;20476;-67
2023/08/29 04:15:44;;;;;;;4.90;4.28;;;;;;;13.37;77.89;101139.00;5014641;28;20728;-67
2023/08/29 04:18:10;;;;;;;4.28;3.88;;;;;;;13.33;78.23;101132.13;5012477;28;20037;-67
2023/08/29 04:20:35;;;;;;;6.03;4.60;;;;;;;13.31;78.44;101128.69;5014166;28;20061;-67
2023/08/29 04:23:02;;;;;;;6.60;4.60;;;;;;;13.29;78.62;101128.78;5008995;28;20075;-67
2023/08/29 04:25:28;;;;;;;5.65;4.55;;;;;;;13.31;78.54;101131.34;5013999;28;20026;-67
2023/08/29 04:27:54;;;;;;;8.73;4.03;;;;;;;13.33;78.17;101129.47;5009992;28;20036;-67
2023/08/29 04:30:20;;;;;;;5.65;4.65;;;;;;;13.38;78.03;101130.09;5011257;28;20362;-67
2023/08/29 04:32:47;;;;;;;6.00;5.05;;;;;;;13.34;78.62;101128.56;5016637;28;20369;-67
2023/08/29 04:35:12;;;;;;;6.18;4.88;;;;;;;13.35;78.36;101125.81;5018667;28;20033;-65
2023/08/29 04:37:38;;;;;;;7.22;5.55;;;;;;;13.39;78.64;101135.38;5008433;28;20025;-65
2023/08/29 04:40:06;;;;;;;7.28;5.40;;;;;;;13.34;79.65;101125.91;5011929;28;20353;-65
2023/08/29 04:42:37;;;;;;;8.43;5.85;;;;;;;13.18;80.77;101129.22;5009435;28;20025;-65
2023/08/29 04:45:04;;;;;;;6.28;5.00;;;;;;;13.18;79.70;101117.75;5014710;28;20057;-66
2023/08/29 04:47:30;;;;;;;5.93;4.97;;;;;;;13.23;79.93;101129.91;5008617;28;20049;-66
2023/08/29 04:49:55;;;;;;;5.90;4.32;;;;;;;13.28;79.54;101127.88;5009358;28;20040;-66
2023/08/29 04:52:20;;;;;;;11.32;4.30;;;;;;;13.24;80.06;101129.00;5010987;28;20483;-65
2023/08/29 04:54:46;;;;;;;26.02;4.68;;;;;;;13.17;80.63;101130.16;5009298;28;20029;-67
2023/08/29 04:57:11;;;;;;;10.63;5.03;;;;;;;13.19;80.84;101138.03;5012391;28;20021;-66
2023/08/29 04:59:36;;;;;;;6.75;4.50;;;;;;;13.23;79.98;101121.94;5015393;28;20025;-67
2023/08/29 05:02:01;;;;;;;5.72;5.10;;;;;;;13.31;80.22;101128.69;5009718;28;20431;-67
2023/08/29 05:04:27;;;;;;;6.55;5.60;;;;;;;13.35;80.09;101130.28;5008230;28;20026;-67
2023/08/29 05:06:52;;;;;;;6.57;5.13;;;;;;;13.40;80.01;101130.91;5010092;28;20030;-66
2023/08/29 05:09:17;;;;;;;6.15;5.07;;;;;;;13.44;79.76;101136.00;5009814;28;20420;-66
2023/08/29 05:11:42;;;;;;;8.10;6.07;;;;;;;13.49;80.18;101128.69;5005807;28;20033;-66
2023/08/29 05:14:08;;;;;;;7.57;4.82;;;;;;;13.58;79.61;101131.84;5008719;28;20087;-66
2023/08/29 05:16:33;;;;;;;5.82;4.28;;;;;;;13.61;79.46;101135.19;5007396;28;20030;-67
2023/08/29 05:18:59;;;;;;;4.53;4.03;;;;;;;13.63;78.37;101138.66;5010574;28;20112;-66
2023/08/29 05:21:25;;;;;;;5.95;4.43;;;;;;;13.62;77.80;101134.28;5006961;28;20033;-67
2023/08/29 05:23:50;;;;;;;5.20;4.68;;;;;;;13.66;78.08;101124.34;5006666;28;20111;-66
2023/08/29 05:26:15;;;;;;;7.07;5.68;;;;;;;13.60;78.76;101112.22;5009284;28;20651;-66
2023/08/29 05:28:41;;;;;;;8.32;5.80;;;;;;;13.67;79.11;101110.16;5009582;28;20044;-66
2023/08/29 05:31:07;;;;;;;6.47;5.18;;;;;;;13.75;79.03;101121.22;5011189;28;20040;-66
2023/08/29 05:33:32;;;;;;;5.75;5.22;;;;;;;13.77;78.38;101127.34;5012117;28;20029;-66
2023/08/29 05:35:57;;;;;;;7.45;4.65;;;;;;;13.86;78.61;101134.03;5010487;28;20659;-66
2023/08/29 05:38:25;;;;;;;6.35;4.82;;;;;;;13.89;78.30;101132.03;5010317;28;20022;-66
2023/08/29 05:40:53;;;;;;;6.57;5.22;;;;;;;13.85;78.77;101133.16;5015484;28;20521;-67
2023/08/29 05:43:19;;;;;;;6.18;5.57;;;;;;;13.90;79.17;101141.75;5009979;28;20029;-66
2023/08/29 05:45:44;;;;;;;6.25;5.43;;;;;;;13.90;79.09;101135.59;5008219;28;20049;-67
2023/08/29 05:48:10;;;;;;;7.97;6.57;;;;;;;13.85;79.07;101132.28;5009758;28;20069;-66
2023/08/29 05:50:35;;;;;;;8.02;6.90;;;;;;;13.89;79.00;101132.03;5011412;28;20075;-66
2023/08/29 05:53:00;;;;;;;7.72;6.90;;;;;;;13.94;79.64;101135.38;5006437;28;20095;-67
2023/08/29 05:55:25;;;;;;;7.47;5.88;;;;;;;14.00;78.94;101132.41;5009470;28;20038;-66
2023/08/29 05:57:51;;;;;;;7.95;6.50;;;;;;;14.10;79.61;101129.28;5007437;28;20301;-67
2023/08/29 06:00:18;;;;;;;11.80;6.95;;;;;;;14.17;79.86;101131.53;5009218;28;20033;-66
2023/08/29 06:02:44;;;;;;;7.57;6.65;;;;;;;14.14;79.67;101126.38;5013466;28;20029;-66
2023/08/29 06:05:10;;;;;;;7.28;6.53;;;;;;;14.17;79.05;101136.84;5013783;28;20033;-66
2023/08/29 06:07:35;;;;;;;8.20;6.97;;;;;;;14.25;79.58;101144.44;5008270;28;20405;-66
2023/08/29 06:10:00;;;;;;;11.30;8.77;;;;;;;14.33;79.66;101141.41;5019932;28;20030;-66
2023/08/29 06:12:26;;;;;;;9.27;8.25;;;;;;;14.37;79.49;101145.63;4999752;28;20025;-66
2023/08/29 06:14:51;;;;;;;14.45;9.68;;;;;;;14.28;80.50;101145.16;5015875;28;20030;-67
2023/08/29 06:17:16;;;;;;;11.07;9.40;;;;;;;14.34;80.34;101143.13;5011544;28;20056;-67
2023/08/29 06:19:42;;;;;;;12.05;10.63;;;;;;;14.45;80.60;101146.09;5009517;28;20153;-67
2023/08/29 06:22:07;;;;;;;16.13;13.43;;;;;;;14.49;81.04;101142.38;5009587;28;20037;-67
2023/08/29 06:24:33;;;;;;;16.95;12.90;;;;;;;14.56;81.53;101135.81;5011045;28;20025;-66
2023/08/29 06:26:58;;;;;;;16.45;13.50;;;;;;;14.65;81.05;101137.13;5012288;28;20112;-67
2023/08/29 06:29:24;;;;;;;16.48;12.35;;;;;;;14.68;82.65;101137.81;4992748;28;20567;-66
2023/08/29 06:31:49;;;;;;;15.52;13.20;;;;;;;14.83;80.63;101138.81;5007665;28;20026;-66
2023/08/29 06:34:14;;;;;;;15.70;13.40;;;;;;;14.96;81.03;101147.84;5011251;28;20477;-66
2023/08/29 06:36:40;;;;;;;15.40;12.43;;;;;;;15.08;80.79;101142.81;5018831;28;20029;-66
2023/08/29 06:39:05;;;;;;;17.38;12.35;;;;;;;15.21;80.59;101141.22;5008811;28;20416;-66
2023/08/29 06:41:30;;;;;;;15.90;13.02;;;;;;;15.22;80.31;101140.25;5009918;28;20421;-66
2023/08/29 06:43:56;;;;;;;18.30;14.10;;;;;;;15.28;80.42;101138.13;5012080;28;20116;-66
2023/08/29 06:46:22;;;;;;;15.93;13.05;;;;;;;15.38;79.77;101138.47;5007204;28;20393;-66
2023/08/29 06:48:48;;;;;;;16.45;13.10;;;;;;;15.47;80.55;101135.28;5013979;28;20033;-66
2023/08/29 06:51:13;;;;;;;17.85;13.65;;;;;;;15.49;80.50;101129.91;5012832;28;20030;-66
2023/08/29 06:53:38;;;;;;;14.10;12.32;;;;;;;15.61;80.64;101145.19;5006926;28;20084;-66
2023/08/29 06:56:04;;;;;;;14.65;13.13;;;;;;;15.73;80.04;101136.53;5014269;28;20024;-67
2023/08/29 06:58:29;;;;;;;19.27;13.75;;;;;;;15.79;80.08;101136.16;5004370;28;20533;-67
2023/08/29 07:00:54;;;;;;;17.05;13.88;;;;;;;15.80;80.36;101129.88;5004833;28;20376;-66
2023/08/29 07:03:20;;;;;;;15.73;13.80;;;;;;;15.90;80.41;101137.34;5008168;28;20057;-67
2023/08/29 07:05:45;;;;;;;14.05;12.00;;;;;;;16.08;79.36;101123.81;5005445;28;20047;-66
2023/08/29 07:08:10;;;;;;;12.75;11.23;;;;;;;16.22;78.72;101119.47;5011179;28;20068;-66
2023/08/29 07:10:36;;;;;;;12.57;10.73;;;;;;;16.32;78.94;101126.00;5006605;28;20041;-67
2023/08/29 07:13:01;;;;;;;10.95;9.82;;;;;;;16.35;78.65;101119.63;5005555;28;20030;-67
2023/08/29 07:15:26;;;;;;;11.50;8.43;;;;;;;16.44;78.75;101129.75;5014456;28;20509;-68
2023/08/29 07:17:53;;;;;;;9.38;8.38;;;;;;;16.50;78.36;101129.34;5011631;28;20032;-67
2023/08/29 07:20:19;;;;;;;10.27;7.93;;;;;;;16.55;77.92;101132.59;5007633;28;20041;-67
2023/08/29 07:22:45;;;;;;;10.32;7.45;;;;;;;16.64;77.47;101129.38;5007298;28;20024;-66
2023/08/29 07:25:11;;;;;;;9.70;8.57;;;;;;;16.80;76.99;101135.53;5007930;28;20030;-66
2023/08/29 07:27:36;;;;;;;8.65;7.78;;;;;;;16.94;77.68;101147.19;5008116;28;20100;-66
2023/08/29 07:30:03;;;;;;;8.98;8.07;;;;;;;16.94;78.00;101144.53;5008477;28;20058;-66
2023/08/29 07:32:28;;;;;;;10.18;7.60;;;;;;;17.07;77.44;101143.66;5003447;28;20045;-67
2023/08/29 07:34:55;;;;;;;7.38;6.63;;;;;;;17.26;75.95;101143.38;5008045;28;20153;-67
2023/08/29 07:37:21;;;;;;;8.10;7.25;;;;;;;17.33;75.04;101141.16;5005622;28;20026;-66
2023/08/29 07:39:46;;;;;;;9.52;8.52;;;;;;;17.59;75.76;101142.16;5013219;28;20033;-66
2023/08/29 07:42:11;;;;;;;11.30;8.75;;;;;;;17.75;74.44;101144.72;5009058;28;20037;-66
2023/08/29 07:44:36;;;;;;;13.18;11.50;;;;;;;17.75;74.90;101153.59;5003048;28;20152;-66
2023/08/29 07:47:02;;;;;;;13.85;12.32;;;;;;;17.85;75.07;101149.34;5005398;28;20036;-66
2023/08/29 07:49:27;;;;;;;15.27;12.77;;;;;;;18.01;74.59;101145.69;5011731;28;20038;-66
2023/08/29 07:51:54;;;;;;;13.35;12.05;;;;;;;18.00;74.21;101149.31;5011428;28;20031;-66
2023/08/29 07:54:20;;;;;;;13.20;10.85;;;;;;;18.16;73.27;101154.50;5008402;28;20088;-66
2023/08/29 07:56:45;;;;;;;13.52;10.07;;;;;;;18.21;73.11;101147.88;5012962;28;20022;-67
2023/08/29 07:59:10;;;;;;;9.90;8.90;;;;;;;18.32;72.94;101150.69;5012715;28;20099;-66
2023/08/29 08:01:36;;;;;;;8.82;7.20;;;;;;;18.49;71.84;101149.53;5011629;28;20143;-66
2023/08/29 08:04:03;;;;;;;8.43;7.53;;;;;;;18.60;71.89;101140.75;5012357;28;20064;-66
2023/08/29 08:06:28;;;;;;;7.90;7.10;;;;;;;18.60;71.86;101140.75;5011607;28;20138;-66
2023/08/29 08:08:54;;;;;;;9.10;7.38;;;;;;;18.55;72.53;101138.41;4998267;28;20117;-66
2023/08/29 08:11:20;;;;;;;11.23;8.45;;;;;;;18.47;72.59;101135.41;5003193;28;20022;-66
2023/08/29 08:13:46;;;;;;;10.10;7.65;;;;;;;18.61;72.24;101146.03;5004383;28;20041;-66
2023/08/29 08:16:11;;;;;;;9.32;7.05;;;;;;;18.93;70.51;101140.31;5013146;28;20438;-66
2023/08/29 08:18:36;;;;;;;8.40;7.18;;;;;;;19.08;70.63;101141.88;5014287;28;20026;-66
2023/08/29 08:21:01;;;;;;;10.48;7.28;;;;;;;19.27;70.42;101140.56;5014487;28;20040;-66
2023/08/29 08:23:27;;;;;;;9.45;7.22;;;;;;;19.50;70.63;101147.81;5014298;28;20052;-66
2023/08/29 08:25:53;;;;;;;10.18;7.40;;;;;;;19.31;69.12;101145.59;5010856;28;20041;-66
2023/08/29 08:28:18;;;;;;;9.20;8.20;;;;;;;19.51;68.78;101146.84;5016505;28;20149;-66
2023/08/29 08:30:44;;;;;;;8.85;7.75;;;;;;;19.59;69.64;101146.28;5012617;28;20065;-66
2023/08/29 08:33:09;;;;;;;7.45;6.10;;;;;;;19.69;67.50;101144.66;5004378;28;20021;-66
2023/08/29 08:35:34;;;;;;;4.38;3.95;;;;;;;19.69;66.68;101158.09;5006299;28;20033;-66
2023/08/29 08:37:59;;;;;;;7.43;5.70;;;;;;;19.83;66.39;101154.38;5008042;28;20050;-66
2023/08/29 08:40:25;;;;;;;7.72;6.65;;;;;;;20.10;66.48;101157.69;5006178;28;20034;-66
2023/08/29 08:42:50;;;;;;;9.05;6.75;;;;;;;20.33;65.84;101152.41;5007132;28;20034;-66
2023/08/29 08:45:16;;;;;;;7.90;6.35;;;;;;;20.56;64.90;101151.56;5010803;28;20033;-66
2023/08/29 08:47:42;;;;;;;9.85;6.28;;;;;;;20.75;64.20;101148.28;5006129;28;20381;-66
2023/08/29 08:50:08;;;;;;;8.60;6.07;;;;;;;21.07;63.51;101147.56;5011370;28;20018;-66
2023/08/29 08:52:34;;;;;;;7.15;5.22;;;;;;;21.44;62.34;101155.41;5011265;28;20878;-66
2023/08/29 08:55:00;;;;;;;5.28;4.63;;;;;;;21.68;60.56;101153.41;5011039;28;20060;-66
2023/08/29 08:57:25;;;;;;;5.20;4.70;;;;;;;22.01;58.89;101148.91;5009262;28;20053;-66
2023/08/29 08:59:50;;;;;;;5.63;4.80;;;;;;;22.10;59.74;101149.03;5011766;28;20076;-66
2023/08/29 09:02:17;;;;;;;5.82;4.28;;;;;;;22.25;59.08;101146.06;5011877;28;20389;-66
2023/08/29 09:04:42;;;;;;;4.75;3.72;;;;;;;22.55;55.78;101142.56;5007604;28;20025;-66
2023/08/29 09:07:08;;;;;;;4.00;3.45;;;;;;;22.07;56.94;101143.03;5012621;28;20041;-66
2023/08/29 09:09:33;;;;;;;5.32;3.83;;;;;;;21.91;55.77;101140.75;5012399;28;20072;-66
2023/08/29 09:11:58;;;;;;;3.65;3.30;;;;;;;22.36;56.62;101138.75;5011662;28;20083;-66
2023/08/29 09:14:25;;;;;;;3.95;2.80;;;;;;;22.90;53.44;101139.56;5014011;28;20512;-66
2023/08/29 09:16:55;;;;;;;4.50;2.90;;;;;;;23.74;52.38;101140.16;5011768;28;20290;-67
2023/08/29 09:19:22;;;;;;;4.75;3.53;;;;;;;23.75;51.70;101139.16;5008138;28;20516;-67
2023/08/29 09:21:48;;;;;;;3.40;2.80;;;;;;;23.66;53.05;101142.69;5003655;28;20033;-67
2023/08/29 09:24:13;;;;;;;3.80;3.30;;;;;;;23.70;51.35;101144.13;5011955;28;20037;-66
2023/08/29 09:26:42;;;;;;;2.83;2.60;;;;;;;23.96;51.11;101146.28;5011650;28;20042;-67
2023/08/29 09:29:26;;;;;;;2.55;2.35;;;;;;;23.65;52.98;101141.00;5012522;28;20485;-67
2023/08/29 09:31:52;;;;;;;4.25;2.00;;;;;;;23.16;51.49;101146.19;5002836;28;20397;-67
2023/08/29 09:34:27;;;;;;;3.67;1.92;;;;;;;22.86;53.05;101141.63;5008531;28;20025;-67
2023/08/29 09:36:54;;;;;;;2.97;2.67;;;;;;;23.16;53.92;101153.44;5006575;28;20184;-67
2023/08/29 09:39:21;;;;;;;3.78;2.95;;;;;;;23.64;51.38;101152.75;5009225;28;20545;-67
2023/08/29 09:42:06;;;;;;;5.10;3.60;;;;;;;23.83;52.78;101147.44;5017137;28;20022;-67
2023/08/29 09:44:37;;;;;;;3.10;2.90;;;;;;;23.70;51.31;101138.72;5006276;28;20041;-67
2023/08/29 09:47:04;;;;;;;4.00;2.20;;;;;;;23.53;50.71;101139.38;5009746;28;20028;-66
2023/08/29 09:49:40;;;;;;;3.45;2.38;;;;;;;23.34;51.38;101140.16;5010923;28;20485;-67
2023/08/29 09:52:06;;;;;;;3.08;2.78;;;;;;;23.08;50.64;101132.56;5007015;28;20042;-66
2023/08/29 09:54:32;;;;;;;4.45;2.90;;;;;;;23.09;53.06;101126.16;5016731;28;20034;-66
2023/08/29 09:57:01;;;;;;;3.45;3.15;;;;;;;23.52;51.18;101126.88;5013469;28;20407;-66
2023/08/29 09:59:28;;;;;;;5.93;2.90;;;;;;;23.72;51.22;101130.47;5016360;28;20075;-66
2023/08/29 10:01:53;;;;;;;4.80;3.20;;;;;;;23.67;51.69;101128.19;5010405;28;20413;-66
2023/08/29 10:04:21;;;;;;;4.38;3.33;;;;;;;23.85;50.81;101125.69;5013193;28;20029;-66
2023/08/29 10:06:49;;;;;;;4.90;3.15;;;;;;;23.92;49.48;101126.81;5006557;28;21640;-66
2023/08/29 10:09:14;;;;;;;2.00;1.77;;;;;;;23.75;49.16;101122.97;5009917;28;20034;-66
2023/08/29 10:11:40;;;;;;;4.03;2.33;;;;;;;23.48;50.44;101128.13;5005901;28;20096;-66
2023/08/29 10:14:07;;;;;;;2.47;1.80;;;;;;;23.17;50.83;101128.16;5017725;28;20034;-66
2023/08/29 10:16:34;;;;;;;1.80;1.58;;;;;;;22.98;49.74;101122.69;5010739;28;20040;-66
2023/08/29 10:18:59;;;;;;;3.38;2.05;;;;;;;22.60;52.18;101124.16;5004423;28;20473;-67
2023/08/29 10:21:26;;;;;;;3.92;2.90;;;;;;;22.28;52.34;101122.38;5007895;28;20037;-67
2023/08/29 10:23:53;;;;;;;3.67;2.90;;;;;;;22.37;52.84;101118.06;5012456;28;20052;-67
2023/08/29 10:26:20;;;;;;;7.25;3.60;;;;;;;22.47;53.13;101123.50;5014785;28;20030;-65
2023/08/29 10:28:47;;;;;;;6.05;4.13;;;;;;;22.56;53.43;101118.19;5003574;28;20033;-67
2023/08/29 10:31:14;;;;;;;5.43;4.10;;;;;;;22.36;53.22;101116.34;5008670;28;20022;-67
2023/08/29 10:33:39;;;;;;;4.80;4.35;;;;;;;22.14;54.27;101115.47;5006157;28;20033;-67
2023/08/29 10:36:08;;;;;;;4.07;3.67;;;;;;;22.28;55.41;101113.44;5013744;28;20029;-67
2023/08/29 10:38:39;;;;;;;3.35;3.05;;;;;;;22.45;53.46;101114.72;5009065;28;20461;-66
2023/08/29 10:41:06;;;;;;;4.20;2.83;;;;;;;22.52;53.13;101110.47;5008734;28;20406;-68
2023/08/29 10:43:32;;;;;;;3.67;3.05;;;;;;;22.50;54.83;101117.84;5003479;28;20128;-68
2023/08/29 10:46:11;;;;;;;7.40;3.83;;;;;;;22.12;53.71;101113.91;5003334;28;20385;-68
2023/08/29 10:48:39;;;;;;;4.82;4.07;;;;;;;21.78;55.00;101113.16;5011147;28;20068;-67
2023/08/29 10:51:10;;;;;;;3.65;3.08;;;;;;;21.99;54.31;101114.03;5006690;28;20497;-67
2023/08/29 10:53:38;;;;;;;3.40;3.10;;;;;;;22.23;53.68;101103.06;5010007;28;20095;-67
2023/08/29 10:56:05;;;;;;;3.30;3.00;;;;;;;22.51;53.28;101100.69;5009535;28;20049;-68
2023/08/29 10:58:38;;;;;;;3.47;2.80;;;;;;;22.64;53.83;101090.56;5000680;28;21744;-67
2023/08/29 11:01:04;;;;;;;7.53;2.85;;;;;;;22.62;53.10;101101.50;5007798;28;20775;-68
2023/08/29 11:03:57;;;;;;;3.35;2.80;;;;;;;22.47;53.33;101094.72;5013208;28;20025;-67
2023/08/29 11:06:23;;;;;;;;;;;;;;;22.73;54.36;101086.22;5003355;28;20108;-68
2023/08/29 11:08:49;;;;;;;3.13;2.33;;;;;;;22.64;51.75;101087.88;5005491;28;19913;-68
2023/08/29 11:11:22;;;;;;;4.57;2.03;;;;;;;22.78;52.46;101081.28;5013771;28;20021;-67
2023/08/29 11:14:03;;;;;;;3.80;2.22;;;;;;;23.01;52.08;101084.69;5005742;28;20466;-67
2023/08/29 11:16:30;;;;;;;2.17;1.95;;;;;;;23.37;49.75;101088.63;5007447;28;20416;-67
2023/08/29 11:19:14;;;;;;;4.38;1.85;;;;;;;23.87;49.59;101083.16;5006828;28;20052;-67
2023/08/29 11:21:42;;;;;;;2.00;1.70;;;;;;;23.54;48.11;101082.53;4986951;28;20045;-67